Time;durP1;ratioP1;P1;durP2;ratioP2;P2;SDS_P1;SDS_P2;PMS_P1;PMS_P2;Temp;Humidity;BMP_temperature;BMP_pressure;BME280_temperature;BME280_humidity;BME280_pressure;Samples;Min_cycle;Max_cycle;Signal;HPM_P1;HPM_P2
2022/10/31 00:02:17;;;;;;;;;;;18.00;71.70;;;;;;5074704;28;19985;-66
2022/10/31 00:04:43;;;;;;;;;;;18.00;71.70;;;;;;5075144;28;19924;-66
2022/10/31 00:07:08;;;;;;;;;;;18.00;71.70;;;;;;5074761;28;19931;-66
2022/10/31 00:09:34;;;;;;;;;;;18.00;71.70;;;;;;5074735;28;19931;-66
2022/10/31 00:12:00;;;;;;;;;;;18.00;71.70;;;;;;5093155;28;19928;-66
2022/10/31 00:14:25;;;;;;;;;;;18.00;71.70;;;;;;5093013;28;20295;-66
2022/10/31 00:16:51;;;;;;;;;;;18.00;71.70;;;;;;5092929;28;19920;-66
2022/10/31 00:19:16;;;;;;;;;;;18.00;71.70;;;;;;5074593;28;19927;-67
2022/10/31 00:21:42;;;;;;;;;;;18.00;71.70;;;;;;5074928;28;19920;-66
2022/10/31 00:24:07;;;;;;;;;;;18.00;71.60;;;;;;5074778;28;19967;-66
2022/10/31 00:26:33;;;;;;;;;;;18.00;71.70;;;;;;5092897;28;20435;-66
2022/10/31 00:28:59;;;;;;;;;;;17.90;71.70;;;;;;5074442;28;19927;-66
2022/10/31 00:31:24;;;;;;;;;;;18.00;71.70;;;;;;5092664;28;20016;-66
2022/10/31 00:33:50;;;;;;;;;;;17.90;71.70;;;;;;5074730;28;20374;-66
2022/10/31 00:36:17;;;;;;;;;;;17.90;71.60;;;;;;5074566;28;19963;-66
2022/10/31 00:38:43;;;;;;;;;;;17.90;71.60;;;;;;5074384;28;19970;-66
2022/10/31 00:41:09;;;;;;;;;;;17.90;71.70;;;;;;5091817;28;19920;-66
2022/10/31 00:43:35;;;;;;;;;;;17.90;71.70;;;;;;5074433;28;19926;-66
2022/10/31 00:46:00;;;;;;;;;;;17.90;71.60;;;;;;5074622;28;19966;-66
2022/10/31 00:48:26;;;;;;;;;;;17.90;71.60;;;;;;5070902;28;19928;-67
2022/10/31 00:50:51;;;;;;;;;;;17.90;71.70;;;;;;5071220;28;20038;-66
2022/10/31 00:53:17;;;;;;;;;;;17.90;71.60;;;;;;5070999;28;20300;-66
2022/10/31 00:55:42;;;;;;;;;;;17.80;71.60;;;;;;5071040;28;19966;-66
2022/10/31 00:58:08;;;;;;;;;;;17.90;71.60;;;;;;5070920;28;19921;-66
2022/10/31 01:00:33;;;;;;;;;;;17.90;71.60;;;;;;5071166;28;19925;-66
2022/10/31 01:02:59;;;;;;;;;;;17.90;71.60;;;;;;5072167;28;19924;-66
2022/10/31 01:05:24;;;;;;;;;;;17.80;71.60;;;;;;5070810;28;19920;-66
2022/10/31 01:07:50;;;;;;;;;;;17.90;71.60;;;;;;5070668;28;19920;-66
2022/10/31 01:10:16;;;;;;;;;;;17.90;71.60;;;;;;5073389;28;20015;-66
2022/10/31 01:12:42;;;;;;;;;;;17.90;71.70;;;;;;5058331;28;20019;-66
2022/10/31 01:15:08;;;;;;;;;;;17.90;71.70;;;;;;5074718;28;19920;-66
2022/10/31 01:17:34;;;;;;;;;;;17.90;71.70;;;;;;5058292;28;19920;-66
2022/10/31 01:19:59;;;;;;;;;;;17.80;71.60;;;;;;5075916;28;19925;-66
2022/10/31 01:22:25;;;;;;;;;;;17.80;71.60;;;;;;5075923;28;19921;-67
2022/10/31 01:24:50;;;;;;;;;;;17.80;71.60;;;;;;5075843;28;20394;-66
2022/10/31 01:27:16;;;;;;;;;;;17.80;71.60;;;;;;5074548;28;20395;-66
2022/10/31 01:29:41;;;;;;;;;;;17.80;71.60;;;;;;5075798;28;19925;-66
2022/10/31 01:32:07;;;;;;;;;;;17.80;71.60;;;;;;5075328;28;20015;-66
2022/10/31 01:34:32;;;;;;;;;;;17.80;71.60;;;;;;5074427;28;20180;-66
2022/10/31 01:36:58;;;;;;;;;;;17.80;71.60;;;;;;5075612;28;19963;-66
2022/10/31 01:39:23;;;;;;;;;;;17.80;71.70;;;;;;5075610;28;20390;-66
2022/10/31 01:41:50;;;;;;;;;;;17.80;71.60;;;;;;5074394;28;19999;-67
2022/10/31 01:49:39;;;;;;;;;;;17.70;71.50;;;;;;5129979;27;1855069;-66
2022/10/31 01:52:10;;;;;;;;;;;17.70;71.50;;;;;;5174353;27;19925;-66
2022/10/31 01:54:39;;;;;;;;;;;17.70;71.50;;;;;;5193125;27;19940;-66
2022/10/31 01:57:06;;;;;;;;;;;17.70;71.50;;;;;;5174315;27;20449;-66
2022/10/31 01:59:34;;;;;;;;;;;16.90;71.10;;;;;;5174536;27;19919;-66
2022/10/31 02:02:00;;;;;;;;;;;17.80;71.60;;;;;;5174499;27;20361;-66
2022/10/31 02:04:26;;;;;;;;;;;17.70;71.50;;;;;;5174459;27;19977;-66
2022/10/31 02:09:31;;;;;;;;;;;17.70;71.50;;;;;;5127435;27;1870011;-66
2022/10/31 02:11:58;;;;;;;;;;;17.70;71.50;;;;;;5174674;27;20010;-66
2022/10/31 02:14:24;;;;;;;;;;;17.70;71.50;;;;;;5174435;27;20001;-66
2022/10/31 02:16:50;;;;;;;;;;;17.70;71.50;;;;;;5174552;27;19924;-66
2022/10/31 02:19:19;;;;;;;;;;;17.70;71.50;;;;;;5174629;27;20336;-66
2022/10/31 02:21:53;;;;;;;;;;;17.70;71.50;;;;;;5174395;27;19922;-66
2022/10/31 02:27:10;;;;;;;;;;;17.70;71.50;;;;;;5110447;27;19912;-66
2022/10/31 02:29:55;;;;;;;;;;;17.70;71.40;;;;;;5091177;28;19920;-66
2022/10/31 02:32:32;;;;;;;;;;;17.70;71.40;;;;;;5091785;28;19933;-66
2022/10/31 02:35:03;;;;;;;;;;;17.70;71.40;;;;;;5092144;28;19926;-66
2022/10/31 02:37:37;;;;;;;;;;;17.70;71.50;;;;;;5074898;28;19924;-66
2022/10/31 02:42:49;;;;;;;;;;;17.60;71.40;;;;;;5127255;27;1869239;-67
2022/10/31 02:45:35;;;;;;;;;;;17.60;71.40;;;;;;5174537;27;19940;-67
2022/10/31 02:48:03;;;;;;;;;;;17.60;71.40;;;;;;5174548;27;19970;-66
2022/10/31 02:50:31;;;;;;;;;;;17.60;71.40;;;;;;5157587;27;19919;-66
2022/10/31 02:52:56;;;;;;;;;;;17.60;71.40;;;;;;5153578;27;19923;-66
2022/10/31 02:58:12;;;;;;;;;;;17.60;71.30;;;;;;5089879;28;19912;-66
2022/10/31 03:00:43;;;;;;;;;;;17.70;71.40;;;;;;5088531;28;19920;-67
2022/10/31 03:03:14;;;;;;;;;;;17.60;71.30;;;;;;5105500;28;20003;-66
2022/10/31 03:05:46;;;;;;;;;;;17.60;71.30;;;;;;5088472;28;19921;-66
2022/10/31 03:08:31;;;;;;;;;;;17.60;71.30;;;;;;5088360;28;19928;-66
2022/10/31 03:10:58;;;;;;;;;;;17.60;71.30;;;;;;5088346;28;19920;-66
2022/10/31 03:13:32;;;;;;;;;;;17.60;71.30;;;;;;5088268;28;19921;-66
2022/10/31 03:16:17;;;;;;;;;;;17.50;71.20;;;;;;5089570;28;19927;-66
2022/10/31 03:18:49;;;;;;;;;;;17.60;71.30;;;;;;5089333;28;20350;-66
2022/10/31 03:21:18;;;;;;;;;;;17.60;71.20;;;;;;5088254;28;19944;-66
2022/10/31 03:23:45;;;;;;;;;;;17.50;71.20;;;;;;5089344;28;20371;-66
2022/10/31 03:26:11;;;;;;;;;;;17.50;71.20;;;;;;5089467;28;20287;-66
2022/10/31 03:28:43;;;;;;;;;;;17.50;71.20;;;;;;5104970;28;20059;-66
2022/10/31 03:31:10;;;;;;;;;;;17.50;71.20;;;;;;5089203;28;19927;-66
2022/10/31 03:33:36;;;;;;;;;;;17.50;71.20;;;;;;5089173;28;20291;-66
2022/10/31 03:36:04;;;;;;;;;;;17.50;71.20;;;;;;5089100;28;19939;-66
2022/10/31 03:38:30;;;;;;;;;;;17.50;71.20;;;;;;5087890;28;19960;-66
2022/10/31 03:40:58;;;;;;;;;;;17.50;71.20;;;;;;5088012;28;19921;-66
2022/10/31 03:43:26;;;;;;;;;;;17.50;71.10;;;;;;5088007;28;20291;-66
2022/10/31 03:45:52;;;;;;;;;;;17.50;71.20;;;;;;5088953;28;20423;-65
2022/10/31 03:48:18;;;;;;;;;;;17.50;71.10;;;;;;5088468;28;19927;-66
2022/10/31 03:53:30;;;;;;;;;;;17.50;71.10;;;;;;5089995;28;19913;-67
2022/10/31 03:55:59;;;;;;;;;;;17.50;71.10;;;;;;5088872;28;19920;-66
2022/10/31 03:58:28;;;;;;;;;;;17.50;71.10;;;;;;5088785;28;19960;-65
2022/10/31 04:00:55;;;;;;;;;;;17.50;71.10;;;;;;5089756;28;20312;-66
2022/10/31 04:03:23;;;;;;;;;;;17.40;71.10;;;;;;5089139;28;19975;-66
2022/10/31 04:05:51;;;;;;;;;;;17.40;71.80;;;;;;5088330;28;19999;-66
2022/10/31 04:08:19;;;;;;;;;;;17.40;71.00;;;;;;5088763;28;20010;-66
2022/10/31 04:10:46;;;;;;;;;;;17.40;71.00;;;;;;5088278;28;19920;-66
2022/10/31 04:13:13;;;;;;;;;;;17.50;71.10;;;;;;5088231;28;19973;-66
2022/10/31 04:15:41;;;;;;;;;;;17.50;71.10;;;;;;5088588;28;19947;-66
2022/10/31 04:18:06;;;;;;;;;;;17.40;71.00;;;;;;5089483;28;20311;-66
2022/10/31 04:20:33;;;;;;;;;;;17.30;71.00;;;;;;5088095;28;19920;-66
2022/10/31 04:22:59;;;;;;;;;;;17.40;70.90;;;;;;5089378;28;19920;-66
2022/10/31 04:25:24;;;;;;;;;;;18.70;71.70;;;;;;5088365;28;19921;-66
2022/10/31 04:27:50;;;;;;;;;;;17.40;70.90;;;;;;5087893;28;19921;-66
2022/10/31 04:30:15;;;;;;;;;;;17.40;70.90;;;;;;5088316;28;19963;-66
2022/10/31 04:32:41;;;;;;;;;;;17.40;70.90;;;;;;5087819;28;20348;-66
2022/10/31 04:35:06;;;;;;;;;;;17.40;70.90;;;;;;5089515;28;19921;-66
2022/10/31 04:37:32;;;;;;;;;;;17.40;70.90;;;;;;5089044;28;19943;-66
2022/10/31 04:39:57;;;;;;;;;;;17.40;70.90;;;;;;5087702;28;20014;-66
2022/10/31 04:42:23;;;;;;;;;;;17.40;70.90;;;;;;5088854;28;19950;-65
2022/10/31 04:44:48;;;;;;;;;;;17.40;70.90;;;;;;5088947;28;19924;-66
2022/10/31 04:47:14;;;;;;;;;;;17.40;70.90;;;;;;5087514;28;19998;-66
2022/10/31 04:49:40;;;;;;;;;;;17.40;70.90;;;;;;5088914;28;20015;-65
2022/10/31 04:52:06;;;;;;;;;;;17.40;70.90;;;;;;5086600;28;20399;-65
2022/10/31 04:54:32;;;;;;;;;;;17.40;70.80;;;;;;5087301;28;19926;-66
2022/10/31 04:56:57;;;;;;;;;;;17.40;70.80;;;;;;5087255;28;19924;-65
2022/10/31 04:59:23;;;;;;;;;;;17.40;70.80;;;;;;5087619;28;19924;-66
2022/10/31 05:01:48;;;;;;;;;;;17.30;71.60;;;;;;5087381;28;19920;-65
2022/10/31 05:04:14;;;;;;;;;;;17.30;70.80;;;;;;5077800;28;19921;-65
2022/10/31 05:06:39;;;;;;;;;;;17.30;70.80;;;;;;5074985;28;19920;-66
2022/10/31 05:09:05;;;;;;;;;;;17.30;70.70;;;;;;5074973;28;19920;-66
2022/10/31 05:11:30;;;;;;;;;;;17.40;70.80;;;;;;5073824;28;19925;-66
2022/10/31 05:13:56;;;;;;;;;;;17.40;70.80;;;;;;5073519;28;19939;-66
2022/10/31 05:16:22;;;;;;;;;;;17.40;70.80;;;;;;5073923;28;19920;-66
2022/10/31 05:18:47;;;;;;;;;;;17.30;70.70;;;;;;5073437;28;19924;-66
2022/10/31 05:21:13;;;;;;;;;;;17.40;70.70;;;;;;5073861;28;19927;-66
2022/10/31 05:23:38;;;;;;;;;;;17.30;70.70;;;;;;5073753;28;19921;-65
2022/10/31 05:26:04;;;;;;;;;;;17.30;70.70;;;;;;5074701;28;19927;-66
2022/10/31 05:28:29;;;;;;;;;;;17.30;70.70;;;;;;5072576;28;20299;-66
2022/10/31 05:30:55;;;;;;;;;;;17.30;70.60;;;;;;5074065;28;19924;-66
2022/10/31 05:33:20;;;;;;;;;;;17.30;70.60;;;;;;5073396;28;19925;-66
2022/10/31 05:35:46;;;;;;;;;;;17.30;70.60;;;;;;5073517;28;20019;-66
2022/10/31 05:38:11;;;;;;;;;;;17.30;70.60;;;;;;5073268;28;19927;-66
2022/10/31 05:40:37;;;;;;;;;;;17.30;70.60;;;;;;5073166;28;19927;-66
2022/10/31 05:43:02;;;;;;;;;;;17.30;70.50;;;;;;5073398;28;19920;-66
2022/10/31 05:45:28;;;;;;;;;;;17.20;70.50;;;;;;5074309;28;20372;-66
2022/10/31 05:47:54;;;;;;;;;;;17.30;70.50;;;;;;5073050;28;20273;-66
2022/10/31 05:50:20;;;;;;;;;;;17.30;70.50;;;;;;5073244;28;19920;-66
2022/10/31 05:52:46;;;;;;;;;;;17.30;70.50;;;;;;5072649;28;19936;-66
2022/10/31 05:55:11;;;;;;;;;;;17.20;70.40;;;;;;5072799;28;19920;-66
2022/10/31 05:57:37;;;;;;;;;;;17.30;70.40;;;;;;5074014;28;20019;-66
2022/10/31 06:00:03;;;;;;;;;;;17.30;70.40;;;;;;5072289;28;19920;-66
2022/10/31 06:02:34;;;;;;;;;;;17.20;70.30;;;;;;5074015;28;20094;-66
2022/10/31 06:05:00;;;;;;;;;;;17.20;70.40;;;;;;5074131;28;19920;-66
2022/10/31 06:07:25;;;;;;;;;;;17.20;70.40;;;;;;5072834;28;20316;-66
2022/10/31 06:09:51;;;;;;;;;;;17.20;70.30;;;;;;5072865;28;19936;-66
2022/10/31 06:12:16;;;;;;;;;;;17.20;70.30;;;;;;5072700;28;19931;-66
2022/10/31 06:14:42;;;;;;;;;;;17.20;70.20;;;;;;5071945;28;20281;-66
2022/10/31 06:17:07;;;;;;;;;;;17.20;70.20;;;;;;5073557;28;19927;-66
2022/10/31 06:19:33;;;;;;;;;;;17.20;70.20;;;;;;5072318;28;19920;-66
2022/10/31 06:21:58;;;;;;;;;;;17.20;70.20;;;;;;5073805;28;19920;-66
2022/10/31 06:24:24;;;;;;;;;;;17.20;70.10;;;;;;5073544;28;19920;-66
2022/10/31 06:26:49;;;;;;;;;;;17.20;70.10;;;;;;5072237;28;19973;-72
2022/10/31 06:29:15;;;;;;;;;;;17.20;70.40;;;;;;5072793;28;19951;-68
2022/10/31 06:31:40;;;;;;;;;;;17.20;70.60;;;;;;5069779;28;19929;-64
2022/10/31 06:34:06;;;;;;;;;;;17.20;70.70;;;;;;5072302;28;20011;-64
2022/10/31 06:36:31;;;;;;;;;;;17.20;70.60;;;;;;5070746;28;20506;-65
2022/10/31 06:38:57;;;;;;;;;;;17.20;70.60;;;;;;5070157;28;19920;-65
2022/10/31 06:41:22;;;;;;;;;;;17.30;70.70;;;;;;5071327;28;19920;-65
2022/10/31 06:43:48;;;;;;;;;;;17.30;70.50;;;;;;5070806;28;19964;-65
2022/10/31 06:46:13;;;;;;;;;;;17.30;70.40;;;;;;5069475;28;20017;-64
2022/10/31 06:48:40;;;;;;;;;;;17.30;70.30;;;;;;5070243;28;19921;-65
2022/10/31 06:51:06;;;;;;;;;;;17.30;70.10;;;;;;5071210;28;19927;-65
2022/10/31 06:53:31;;;;;;;;;;;17.30;70.10;;;;;;5069837;28;19925;-66
2022/10/31 06:55:56;;;;;;;;;;;17.40;70.00;;;;;;5067792;28;19921;-65
2022/10/31 06:58:22;;;;;;;;;;;17.30;70.00;;;;;;5062357;28;19920;-67
2022/10/31 07:00:48;;;;;;;;;;;17.30;69.90;;;;;;5060393;28;19924;-64
2022/10/31 07:03:15;;;;;;;;;;;17.40;69.90;;;;;;5053639;28;19924;-64
2022/10/31 07:05:41;;;;;;;;;;;17.40;70.00;;;;;;5054364;28;19925;-64
2022/10/31 07:08:08;;;;;;;;;;;17.40;69.70;;;;;;5071915;28;19968;-64
2022/10/31 07:10:34;;;;;;;;;;;17.40;69.60;;;;;;5049281;28;20322;-64
2022/10/31 07:13:02;;;;;;;;;;;17.40;69.40;;;;;;5054282;28;20211;-64
2022/10/31 07:15:29;;;;;;;;;;;17.40;69.10;;;;;;5055188;28;19923;-65
2022/10/31 07:17:58;;;;;;;;;;;17.40;69.00;;;;;;5055337;28;19921;-64
2022/10/31 07:20:24;;;;;;;;;;;17.40;68.80;;;;;;5060098;28;19947;-66
2022/10/31 07:22:50;;;;;;;;;;;17.40;68.70;;;;;;5055947;28;19925;-65
2022/10/31 07:25:15;;;;;;;;;;;17.40;68.70;;;;;;5050188;28;19928;-65
2022/10/31 07:27:42;;;;;;;;;;;17.40;69.00;;;;;;5051798;28;19959;-65
2022/10/31 07:30:08;;;;;;;;;;;17.50;69.00;;;;;;5052133;28;19940;-65
2022/10/31 07:32:42;;;;;;;;;;;17.40;69.00;;;;;;5051626;28;20529;-66
2022/10/31 07:35:08;;;;;;;;;;;16.90;68.80;;;;;;5040529;28;19928;-66
2022/10/31 07:37:34;;;;;;;;;;;17.50;69.20;;;;;;5051883;28;20019;-67
2022/10/31 07:40:00;;;;;;;;;;;17.50;69.10;;;;;;5055537;28;19925;-65
2022/10/31 07:42:25;;;;;;;;;;;17.50;69.20;;;;;;5048673;28;19924;-67
2022/10/31 07:44:51;;;;;;;;;;;17.50;69.20;;;;;;5059036;28;19988;-66
2022/10/31 07:47:16;;;;;;;;;;;17.60;69.30;;;;;;5050203;28;19931;-66
2022/10/31 07:49:42;;;;;;;;;;;17.50;69.20;;;;;;5050790;28;19929;-70
2022/10/31 07:52:07;;;;;;;;;;;17.50;69.10;;;;;;5057454;28;19947;-66
2022/10/31 07:54:33;;;;;;;;;;;17.50;68.90;;;;;;5054028;28;19928;-65
2022/10/31 07:56:58;;;;;;;;;;;17.40;68.50;;;;;;5053415;28;19973;-67
2022/10/31 07:59:25;;;;;;;;;;;17.50;68.40;;;;;;5049863;28;19928;-67
2022/10/31 08:01:51;;;;;;;;;;;17.50;68.30;;;;;;5049219;28;19932;-63
2022/10/31 08:04:16;;;;;;;;;;;17.60;68.40;;;;;;5047076;28;19924;-65
2022/10/31 08:06:42;;;;;;;;;;;17.60;68.60;;;;;;5046487;28;19924;-65
2022/10/31 08:09:07;;;;;;;;;;;17.60;68.80;;;;;;5064157;28;20368;-64
2022/10/31 08:11:33;;;;;;;;;;;17.60;69.10;;;;;;5050998;28;19932;-68
2022/10/31 08:13:58;;;;;;;;;;;17.60;69.40;;;;;;5042825;28;19925;-64
2022/10/31 08:16:24;;;;;;;;;;;17.60;69.60;;;;;;5049589;28;19925;-65
2022/10/31 08:18:49;;;;;;;;;;;17.70;69.80;;;;;;5049787;28;19971;-65
2022/10/31 08:21:15;;;;;;;;;;;17.70;70.00;;;;;;5047365;28;20273;-64
2022/10/31 08:23:40;;;;;;;;;;;17.70;70.10;;;;;;5046376;28;20168;-65
2022/10/31 08:26:06;;;;;;;;;;;17.70;70.20;;;;;;5044853;28;20392;-64
2022/10/31 08:28:32;;;;;;;;;;;17.70;70.20;;;;;;5046582;28;20125;-66
2022/10/31 08:30:58;;;;;;;;;;;17.80;70.40;;;;;;5045940;28;19924;-66
2022/10/31 08:33:23;;;;;;;;;;;17.80;70.30;;;;;;5042254;28;19994;-65
2022/10/31 08:35:49;;;;;;;;;;;17.80;70.20;;;;;;5032161;28;19951;-68
2022/10/31 08:38:15;;;;;;;;;;;17.80;70.00;;;;;;5049733;28;19928;-64
2022/10/31 08:40:41;;;;;;;;;;;17.80;70.20;;;;;;5049709;28;19928;-65
2022/10/31 08:43:14;;;;;;;;;;;17.80;70.40;;;;;;5054826;28;20508;-67
2022/10/31 08:45:40;;;;;;;;;;;17.80;70.50;;;;;;5069189;28;19975;-66
2022/10/31 08:48:08;;;;;;;;;;;17.80;70.80;;;;;;5055410;28;20039;-64
2022/10/31 08:50:35;;;;;;;;;;;17.80;70.60;;;;;;5050587;28;20450;-63
2022/10/31 08:53:01;;;;;;;;;;;17.80;70.60;;;;;;5048855;28;19997;-66
2022/10/31 08:55:26;;;;;;;;;;;17.80;70.70;;;;;;5053372;28;19978;-66
2022/10/31 08:57:56;;;;;;;;;;;17.80;71.10;;;;;;5052288;28;20242;-66
2022/10/31 09:00:22;;;;;;;;;;;17.80;70.90;;;;;;5053833;28;20383;-67
2022/10/31 09:02:47;;;;;;;;;;;17.80;71.10;;;;;;5050839;28;19921;-66
2022/10/31 09:05:13;;;;;;;;;;;17.80;71.30;;;;;;5050185;28;19929;-65
2022/10/31 09:07:38;;;;;;;;;;;17.90;71.50;;;;;;5053039;28;20007;-64
2022/10/31 09:10:04;;;;;;;;;;;17.90;71.50;;;;;;5048043;28;19928;-66
2022/10/31 09:12:29;;;;;;;;;;;17.90;71.80;;;;;;5053892;28;19980;-66
2022/10/31 09:14:55;;;;;;;;;;;17.90;72.00;;;;;;5053437;28;20062;-68
2022/10/31 09:17:20;;;;;;;;;;;17.90;72.20;;;;;;5048473;28;19925;-64
2022/10/31 09:19:46;;;;;;;;;;;17.90;72.40;;;;;;5063603;28;19929;-68
2022/10/31 09:22:11;;;;;;;;;;;17.90;72.30;;;;;;5054355;28;19974;-66
2022/10/31 09:24:37;;;;;;;;;;;18.00;72.40;;;;;;5066564;28;20003;-64
2022/10/31 09:27:02;;;;;;;;;;;18.00;72.40;;;;;;5050214;28;20144;-67
2022/10/31 09:29:28;;;;;;;;;;;18.00;72.50;;;;;;5055821;28;20650;-66
2022/10/31 09:31:55;;;;;;;;;;;18.00;72.50;;;;;;5069786;28;20381;-68
2022/10/31 09:34:21;;;;;;;;;;;18.00;72.50;;;;;;5054029;28;19924;-68
2022/10/31 09:36:46;;;;;;;;;;;18.00;72.20;;;;;;5052857;28;19932;-67
2022/10/31 09:39:12;;;;;;;;;;;18.00;71.80;;;;;;5051899;28;19943;-67
2022/10/31 09:41:48;;;;;;;;;;;18.50;71.90;;;;;;5050813;28;20296;-67
2022/10/31 09:47:04;;;;;;;;;;;18.00;71.20;;;;;;5090273;27;19953;-64
2022/10/31 09:49:35;;;;;;;;;;;18.00;71.40;;;;;;5067989;28;20410;-64
2022/10/31 09:54:56;;;;;;;;;;;18.00;71.30;;;;;;5084271;27;19920;-65
2022/10/31 09:57:27;;;;;;;;;;;18.10;71.90;;;;;;5088793;28;19984;-66
2022/10/31 09:59:52;;;;;;;;;;;18.10;72.00;;;;;;5083173;28;20003;-68
2022/10/31 10:02:23;;;;;;;;;;;18.10;71.80;;;;;;5086962;28;19939;-67
2022/10/31 10:04:55;;;;;;;;;;;18.10;71.80;;;;;;5116601;27;20050;-66
2022/10/31 10:07:40;;;;;;;;;;;18.10;71.80;;;;;;5117953;27;19924;-66
2022/10/31 10:10:13;;;;;;;;;;;18.10;71.90;;;;;;5088985;28;19939;-66
2022/10/31 10:15:39;;;;;;;;;;;18.10;71.90;;;;;;5086852;27;19953;-67
2022/10/31 10:18:25;;;;;;;;;;;18.10;71.90;;;;;;5092080;28;19958;-67
2022/10/31 10:20:58;;;;;;;;;;;16.80;71.30;;;;;;5091049;28;19924;-68
2022/10/31 10:23:43;;;;;;;;;;;18.10;72.20;;;;;;5089257;28;20129;-68
2022/10/31 10:26:15;;;;;;;;;;;18.10;72.10;;;;;;5086834;28;19920;-67
2022/10/31 10:28:42;;;;;;;;;;;18.10;72.00;;;;;;5116797;27;19935;-69
2022/10/31 10:31:13;;;;;;;;;;;18.10;72.30;;;;;;5085708;28;19971;-69
2022/10/31 10:33:41;;;;;;;;;;;18.20;72.40;;;;;;5084869;28;20367;-67
2022/10/31 10:36:26;;;;;;;;;;;18.20;72.50;;;;;;5080242;28;19924;-67
2022/10/31 10:38:53;;;;;;;;;;;18.20;72.70;;;;;;5084063;28;19973;-68
2022/10/31 10:41:20;;;;;;;;;;;18.20;72.80;;;;;;5085048;28;20490;-66
2022/10/31 10:43:48;;;;;;;;;;;18.20;72.70;;;;;;5084889;28;19928;-67
2022/10/31 10:49:15;;;;;;;;;;;18.30;73.00;;;;;;5084388;27;1856605;-63
2022/10/31 10:54:32;;;;;;;;;;;18.30;72.70;;;;;;5063846;28;19929;-63
2022/10/31 10:57:07;;;;;;;;;;;18.30;72.80;;;;;;5073153;28;19955;-65
2022/10/31 10:59:32;;;;;;;;;;;18.30;72.90;;;;;;5070096;28;20248;-64
2022/10/31 11:01:58;;;;;;;;;;;18.30;72.80;;;;;;5077771;28;19925;-64
2022/10/31 11:07:10;;;;;;;;;;;18.30;72.70;;;;;;5085608;27;1862595;-65
2022/10/31 11:09:35;;;;;;;;;;;18.30;72.70;;;;;;5145173;27;20430;-71
2022/10/31 11:12:09;;;;;;;;;;;18.30;72.70;;;;;;5135638;27;19922;-62
2022/10/31 11:14:52;;;;;;;;;;;18.30;72.80;;;;;;5133463;27;20362;-63
2022/10/31 11:20:24;;;;;;;;;;;18.30;73.40;;;;;;5089617;27;19921;-64
2022/10/31 11:23:00;;;;;;;;;;;18.30;73.20;;;;;;5055920;28;20408;-65
2022/10/31 11:25:26;;;;;;;;;;;18.30;73.10;;;;;;5058120;28;20372;-66
2022/10/31 11:27:59;;;;;;;;;;;18.30;73.30;;;;;;5052597;28;19935;-65
2022/10/31 11:30:25;;;;;;;;;;;18.30;73.20;;;;;;5052903;28;20361;-65
2022/10/31 11:32:52;;;;;;;;;;;18.40;73.30;;;;;;5071949;28;19963;-65
2022/10/31 11:35:19;;;;;;;;;;;18.40;73.60;;;;;;5060773;28;19931;-66
2022/10/31 11:37:46;;;;;;;;;;;18.40;74.30;;;;;;5067933;28;19971;-66
2022/10/31 11:40:16;;;;;;;;;;;18.40;73.50;;;;;;5053415;28;19932;-65
2022/10/31 11:42:42;;;;;;;;;;;18.40;73.30;;;;;;5061510;28;20050;-63
2022/10/31 11:47:55;;;;;;;;;;;18.40;73.70;;;;;;5084736;27;1850631;-66
2022/10/31 11:50:22;;;;;;;;;;;18.40;73.70;;;;;;5116838;27;20371;-65
2022/10/31 11:52:48;;;;;;;;;;;18.40;73.50;;;;;;5131725;27;19933;-65
2022/10/31 11:55:15;;;;;;;;;;;18.40;73.50;;;;;;5120830;27;19923;-63
2022/10/31 11:57:44;;;;;;;;;;;18.40;73.50;;;;;;5118184;27;20214;-63
2022/10/31 12:03:19;;;;;;;;;;;18.40;73.40;;;;;;5088231;27;19925;-64
2022/10/31 12:05:45;;;;;;;;;;;18.40;73.30;;;;;;5079494;28;19978;-64
2022/10/31 12:08:11;;;;;;;;;;;18.40;73.40;;;;;;5071692;28;20008;-64
2022/10/31 12:10:42;;;;;;;;;;;18.40;73.50;;;;;;5078366;28;20066;-65
2022/10/31 12:13:17;;;;;;;;;;;18.40;73.30;;;;;;5071564;28;20021;-65
2022/10/31 12:15:47;;;;;;;;;;;18.40;73.20;;;;;;5068055;28;19924;-63
2022/10/31 12:18:33;;;;;;;;;;;18.40;73.30;;;;;;5068961;28;19931;-65
2022/10/31 12:21:18;;;;;;;;;;;18.40;73.20;;;;;;5105548;27;19936;-66
2022/10/31 12:26:33;;;;;;;;;;;18.50;73.50;;;;;;5075924;27;19925;-63
2022/10/31 12:29:13;;;;;;;;;;;18.40;73.00;;;;;;5095816;28;20025;-63
2022/10/31 12:37:06;;;;;;;;;;;18.50;72.80;;;;;;5062122;28;20301;-64
2022/10/31 12:39:38;;;;;;;;;;;18.50;72.70;;;;;;5053033;28;20023;-64
2022/10/31 12:42:12;;;;;;;;;;;18.40;72.60;;;;;;5033976;28;19940;-65
2022/10/31 12:44:48;;;;;;;;;;;18.40;72.70;;;;;;5046972;28;20016;-62
2022/10/31 12:52:45;;;;;;;;;;;18.50;72.50;;;;;;5087809;27;1857086;-64
2022/10/31 12:55:18;;;;;;;;;;;18.40;72.60;;;;;;5119835;27;19927;-64
2022/10/31 12:57:53;;;;;;;;;;;18.50;72.40;;;;;;5120868;27;20274;-63
2022/10/31 13:00:19;;;;;;;;;;;18.50;72.50;;;;;;5120820;27;19934;-66
2022/10/31 13:05:31;;;;;;;;;;;18.50;72.20;;;;;;5070063;27;19942;-64
2022/10/31 13:08:13;;;;;;;;;;;18.50;72.30;;;;;;5070823;28;20157;-63
2022/10/31 13:10:43;;;;;;;;;;;18.70;72.50;;;;;;5051163;28;20392;-67
2022/10/31 13:13:13;;;;;;;;;;;18.50;72.40;;;;;;5066282;28;19931;-66
2022/10/31 13:15:46;;;;;;;;;;;18.50;72.60;;;;;;5054281;28;20011;-66
2022/10/31 13:18:22;;;;;;;;;;;18.50;72.50;;;;;;5045541;28;19925;-64
2022/10/31 13:20:48;;;;;;;;;;;18.50;72.40;;;;;;5050692;28;20381;-66
2022/10/31 13:23:19;;;;;;;;;;;18.50;72.40;;;;;;5049755;28;19936;-65
2022/10/31 13:25:46;;;;;;;;;;;18.50;72.50;;;;;;5050160;28;19947;-64
2022/10/31 13:28:21;;;;;;;;;;;18.50;72.50;;;;;;5050376;28;20123;-65
2022/10/31 13:30:48;;;;;;;;;;;18.60;72.50;;;;;;5049053;28;19925;-63
2022/10/31 13:33:24;;;;;;;;;;;18.50;72.40;;;;;;5050607;28;20299;-65
2022/10/31 13:35:54;;;;;;;;;;;18.60;72.40;;;;;;5059444;28;19928;-62
2022/10/31 13:38:39;;;;;;;;;;;18.60;72.20;;;;;;5067267;28;19924;-64
2022/10/31 13:41:25;;;;;;;;;;;18.60;72.40;;;;;;5045100;28;20020;-66
2022/10/31 13:44:10;;;;;;;;;;;18.60;72.30;;;;;;5052909;28;20057;-64
2022/10/31 13:46:37;;;;;;;;;;;18.60;72.40;;;;;;5050215;28;20047;-65
2022/10/31 13:49:03;;;;;;;;;;;18.60;72.40;;;;;;5045967;28;19928;-66
2022/10/31 13:51:30;;;;;;;;;;;18.60;72.50;;;;;;5044051;28;20015;-66
2022/10/31 13:56:35;;;;;;;;;;;18.60;72.70;;;;;;5107427;27;1849675;-63
2022/10/31 13:59:03;;;;;;;;;;;18.60;72.70;;;;;;5154051;27;19927;-65
2022/10/31 14:01:29;;;;;;;;;;;18.60;73.50;;;;;;5152852;27;20013;-63
2022/10/31 14:06:41;;;;;;;;;;;18.70;73.90;;;;;;5082877;27;19916;-63
2022/10/31 14:09:17;;;;;;;;;;;18.70;73.60;;;;;;5059519;28;19928;-66
2022/10/31 14:11:45;;;;;;;;;;;18.70;73.70;;;;;;5081767;28;19924;-66
2022/10/31 14:14:11;;;;;;;;;;;18.70;73.70;;;;;;5063958;28;19924;-66
2022/10/31 14:16:38;;;;;;;;;;;18.70;73.60;;;;;;5064245;28;19920;-66
2022/10/31 14:19:06;;;;;;;;;;;18.70;73.50;;;;;;5064256;28;19928;-66
2022/10/31 14:21:48;;;;;;;;;;;18.80;73.60;;;;;;5082698;28;19926;-65
2022/10/31 14:24:15;;;;;;;;;;;18.80;73.70;;;;;;5051789;28;19927;-62
2022/10/31 14:26:50;;;;;;;;;;;18.80;73.30;;;;;;5062150;28;19932;-64
2022/10/31 14:31:56;;;;;;;;;;;18.80;72.60;;;;;;5107281;27;1921545;-64
2022/10/31 14:34:32;;;;;;;;;;;18.80;72.50;;;;;;5147373;27;20414;-67
2022/10/31 14:37:02;;;;;;;;;;;18.80;72.30;;;;;;5168068;27;19922;-68
2022/10/31 14:56:09;;;;;;;;;;;19.00;71.40;;;;;;5112126;27;1859942;-65
2022/10/31 15:01:22;;;;;;;;;;;19.10;71.30;;;;;;5183883;27;20377;-67
2022/10/31 15:03:48;;;;;;;;;;;19.20;71.30;;;;;;5149304;27;19923;-67
2022/10/31 15:06:16;;;;;;;;;;;19.20;71.00;;;;;;5141279;27;19919;-67
2022/10/31 15:08:46;;;;;;;;;;;19.20;71.00;;;;;;5140898;27;19927;-67
2022/10/31 15:11:13;;;;;;;;;;;19.20;70.80;;;;;;5136984;27;20275;-66
2022/10/31 15:13:44;;;;;;;;;;;19.20;70.70;;;;;;5137525;27;20004;-65
2022/10/31 15:16:14;;;;;;;;;;;19.30;70.90;;;;;;5133176;27;19919;-66
2022/10/31 15:18:46;;;;;;;;;;;19.80;70.90;;;;;;5135308;27;19919;-66
2022/10/31 15:21:14;;;;;;;;;;;19.40;70.60;;;;;;5162276;27;19938;-67
2022/10/31 15:23:39;;;;;;;;;;;19.40;70.50;;;;;;5134661;27;20328;-66
2022/10/31 15:26:05;;;;;;;;;;;19.40;70.50;;;;;;5140631;27;19923;-65
2022/10/31 15:28:31;;;;;;;;;;;19.40;70.30;;;;;;5141248;27;19919;-67
2022/10/31 15:30:58;;;;;;;;;;;19.40;70.50;;;;;;5146569;27;19927;-64
2022/10/31 15:36:04;;;;;;;;;;;19.40;70.60;;;;;;5108059;27;19916;-66
2022/10/31 15:38:29;;;;;;;;;;;19.40;70.50;;;;;;5107298;28;19927;-63
2022/10/31 15:40:58;;;;;;;;;;;19.40;70.60;;;;;;5105434;28;20602;-64
2022/10/31 15:43:23;;;;;;;;;;;19.40;70.40;;;;;;5095845;28;19924;-63
2022/10/31 15:45:49;;;;;;;;;;;19.40;70.40;;;;;;5093746;28;20164;-64
2022/10/31 15:50:56;;;;;;;;;;;19.40;70.20;;;;;;5088799;28;19919;-63
2022/10/31 15:56:02;;;;;;;;;;;19.40;70.00;;;;;;5131762;27;1862641;-63
2022/10/31 15:58:28;;;;;;;;;;;19.40;69.80;;;;;;5151308;27;20414;-63